createdAt,value
2023-05-17T00:00:55.244Z,5.02
2023-05-17T00:03:21.875Z,4.97
2023-05-17T00:05:48.575Z,5.36
2023-05-17T00:08:15.473Z,5.00
2023-05-17T00:10:43.267Z,5.06
2023-05-17T00:13:09.977Z,5.12
2023-05-17T00:15:36.672Z,5.28
2023-05-17T00:18:03.515Z,5.28
2023-05-17T00:20:30.461Z,5.44
2023-05-17T00:22:57.159Z,5.40
2023-05-17T00:25:23.799Z,5.49
2023-05-17T00:27:50.669Z,5.48
2023-05-17T00:30:17.466Z,5.64
2023-05-17T00:32:46.756Z,5.70
2023-05-17T00:35:13.724Z,5.62
2023-05-17T00:37:40.405Z,5.77
2023-05-17T00:40:07.913Z,5.81
2023-05-17T00:42:34.572Z,5.84
2023-05-17T00:45:01.221Z,5.86
2023-05-17T00:47:28.106Z,5.92
2023-05-17T00:49:55.087Z,5.81
2023-05-17T00:52:22.026Z,6.28
2023-05-17T00:54:51.398Z,5.74
2023-05-17T00:57:18.329Z,5.78
2023-05-17T00:59:45.388Z,5.93
2023-05-17T01:02:12.447Z,6.10
2023-05-17T01:04:39.364Z,6.06
2023-05-17T01:07:06.772Z,6.12
2023-05-17T01:09:33.841Z,5.84
2023-05-17T01:12:06.708Z,6.08
2023-05-17T01:15:01.980Z,6.33
2023-05-17T01:17:49.877Z,6.12
2023-05-17T01:20:33.367Z,6.04
2023-05-17T01:23:22.524Z,6.46
2023-05-17T01:26:04.641Z,6.35
2023-05-17T01:28:32.069Z,6.05
2023-05-17T01:31:02.627Z,6.25
2023-05-17T01:33:30.551Z,6.06
2023-05-17T01:35:57.249Z,6.38
2023-05-17T01:38:23.968Z,6.20
2023-05-17T01:41:06.347Z,6.16
2023-05-17T01:44:02.695Z,6.04
2023-05-17T01:46:40.842Z,6.08
2023-05-17T01:49:29.339Z,6.12
2023-05-17T01:52:13.384Z,5.97
2023-05-17T01:54:51.423Z,6.07
2023-05-17T01:57:22.816Z,5.88
2023-05-17T01:59:51.218Z,6.08
2023-05-17T02:02:18.048Z,5.81
2023-05-17T02:04:44.683Z,6.15
2023-05-17T02:07:11.380Z,6.17
2023-05-17T02:09:37.982Z,6.41
2023-05-17T02:12:04.911Z,6.49
2023-05-17T02:14:31.594Z,6.07
2023-05-17T02:16:58.453Z,6.40
2023-05-17T02:19:25.209Z,5.97
2023-05-17T02:21:51.897Z,6.16
2023-05-17T02:24:18.504Z,5.84
2023-05-17T02:26:45.850Z,6.28
2023-05-17T02:29:12.597Z,5.96
2023-05-17T02:31:39.260Z,6.18
2023-05-17T02:34:05.930Z,5.95
2023-05-17T02:36:33.201Z,6.20
2023-05-17T02:38:59.877Z,5.66
2023-05-17T02:41:26.483Z,6.16
2023-05-17T02:43:53.136Z,6.03
2023-05-17T02:46:19.823Z,6.30
2023-05-17T02:48:46.555Z,6.15
2023-05-17T02:51:13.276Z,5.96
2023-05-17T02:53:39.908Z,6.35
2023-05-17T02:56:06.881Z,6.21
2023-05-17T02:58:33.479Z,6.07
2023-05-17T03:01:00.131Z,6.12
2023-05-17T03:03:28.487Z,6.20
2023-05-17T03:05:55.394Z,6.38
2023-05-17T03:08:21.992Z,6.08
2023-05-17T03:10:48.589Z,6.19
2023-05-17T03:13:15.312Z,6.00
2023-05-17T03:15:41.908Z,6.08
2023-05-17T03:18:08.656Z,6.36
2023-05-17T03:20:35.373Z,6.33
2023-05-17T03:23:01.998Z,6.34
2023-05-17T03:25:28.919Z,6.17
2023-05-17T03:27:56.079Z,6.52
2023-05-17T03:30:22.793Z,6.40
2023-05-17T03:32:53.813Z,6.30
2023-05-17T03:35:20.673Z,6.42
2023-05-17T03:37:47.345Z,6.37
2023-05-17T03:40:13.986Z,6.42
2023-05-17T03:42:41.381Z,6.46
2023-05-17T03:45:08.447Z,6.26
2023-05-17T03:47:35.331Z,6.37
2023-05-17T03:50:02.016Z,6.48
2023-05-17T03:52:28.661Z,5.89
2023-05-17T03:54:55.272Z,5.93
2023-05-17T03:57:22.358Z,5.93
2023-05-17T03:59:49.026Z,5.49
2023-05-17T04:02:16.712Z,5.45
2023-05-17T04:04:50.115Z,4.94
2023-05-17T04:07:17.697Z,5.22
2023-05-17T04:09:44.985Z,4.70
2023-05-17T04:12:11.709Z,4.43
2023-05-17T04:14:38.887Z,4.25
2023-05-17T04:17:05.563Z,4.12
2023-05-17T04:19:32.420Z,4.09
2023-05-17T04:21:59.264Z,3.80
2023-05-17T04:24:25.988Z,3.80
2023-05-17T04:26:53.012Z,3.49
2023-05-17T04:29:19.682Z,3.56
2023-05-17T04:31:48.934Z,3.39
2023-05-17T04:34:15.728Z,3.92
2023-05-17T04:36:42.475Z,3.80
2023-05-17T04:39:09.169Z,3.68
2023-05-17T04:41:35.984Z,3.55
2023-05-17T04:44:02.676Z,3.05
2023-05-17T04:46:29.404Z,3.29
2023-05-17T04:48:56.335Z,3.15
2023-05-17T04:51:23.206Z,3.26
2023-05-17T04:53:49.902Z,3.05
2023-05-17T04:56:16.651Z,3.20
2023-05-17T04:58:43.284Z,2.91
2023-05-17T05:01:10.811Z,2.89
2023-05-17T05:03:37.926Z,2.88
2023-05-17T05:06:04.721Z,2.92
2023-05-17T05:08:33.973Z,3.19
2023-05-17T05:11:00.603Z,3.10
2023-05-17T05:13:27.238Z,3.34
2023-05-17T05:15:53.827Z,3.29
2023-05-17T05:18:20.530Z,3.19
2023-05-17T05:20:50.360Z,3.22
2023-05-17T05:23:18.583Z,3.05
2023-05-17T05:25:45.425Z,3.15
2023-05-17T05:28:12.190Z,3.21
2023-05-17T05:30:39.571Z,3.10
2023-05-17T05:33:06.358Z,3.12
2023-05-17T05:35:33.163Z,3.36
2023-05-17T05:38:00.439Z,3.28
2023-05-17T05:40:27.497Z,3.14
2023-05-17T05:42:54.389Z,3.14
2023-05-17T05:45:21.818Z,3.32
2023-05-17T05:47:48.750Z,3.14
2023-05-17T05:50:15.820Z,2.76
2023-05-17T05:52:42.440Z,2.88
2023-05-17T05:55:09.327Z,3.10
2023-05-17T05:57:36.168Z,2.95
2023-05-17T06:00:04.795Z,3.01
2023-05-17T06:02:31.632Z,2.94
2023-05-17T06:04:58.350Z,2.74
2023-05-17T06:07:25.008Z,3.04
2023-05-17T06:09:51.613Z,2.71
2023-05-17T06:12:18.295Z,2.43
2023-05-17T06:14:44.918Z,2.24
2023-05-17T06:17:11.565Z,2.16
2023-05-17T06:19:38.388Z,2.26
2023-05-17T06:22:05.141Z,2.11
2023-05-17T06:24:33.172Z,1.98
2023-05-17T06:27:00.056Z,2.23
2023-05-17T06:29:26.719Z,1.80
2023-05-17T06:31:53.696Z,2.09
2023-05-17T06:34:20.349Z,1.94
2023-05-17T06:36:46.962Z,2.19
2023-05-17T06:39:13.635Z,2.24
2023-05-17T06:41:40.398Z,3.74
2023-05-17T06:44:07.198Z,2.74
2023-05-17T06:46:33.869Z,1.82
2023-05-17T06:49:00.701Z,2.08
2023-05-17T06:51:27.495Z,2.01
2023-05-17T06:53:55.549Z,2.24
2023-05-17T06:56:22.391Z,1.80
2023-05-17T06:58:49.103Z,1.81
2023-05-17T07:01:15.817Z,1.97
2023-05-17T07:03:42.710Z,2.13
2023-05-17T07:06:09.415Z,2.20
2023-05-17T07:08:36.025Z,2.10
2023-05-17T07:11:03.120Z,2.05
2023-05-17T07:13:30.334Z,2.62
2023-05-17T07:15:57.040Z,3.69
2023-05-17T07:18:23.844Z,6.31
2023-05-17T07:20:50.570Z,2.71
2023-05-17T07:23:17.691Z,2.66
2023-05-17T07:25:44.536Z,1.67
2023-05-17T07:28:11.195Z,1.81
2023-05-17T07:30:37.867Z,1.81
2023-05-17T07:33:04.563Z,1.79
2023-05-17T07:35:31.530Z,1.63
2023-05-17T07:37:58.341Z,1.56
2023-05-17T07:40:25.094Z,1.41
2023-05-17T07:42:52.020Z,1.37
2023-05-17T07:45:18.882Z,1.52
2023-05-17T07:47:45.741Z,1.54
2023-05-17T07:50:12.739Z,1.55
2023-05-17T07:52:39.495Z,1.62
2023-05-17T07:55:06.790Z,1.67
2023-05-17T07:57:33.388Z,1.48
2023-05-17T08:00:00.090Z,1.63
2023-05-17T08:02:26.775Z,1.59
2023-05-17T08:04:53.508Z,1.42
2023-05-17T08:07:20.155Z,1.44
2023-05-17T08:09:46.808Z,1.48
2023-05-17T08:12:13.535Z,1.34
2023-05-17T08:14:40.648Z,1.77
2023-05-17T08:17:07.340Z,1.44
2023-05-17T08:19:34.127Z,1.65
2023-05-17T08:22:01.099Z,1.53
2023-05-17T08:24:27.906Z,1.57
2023-05-17T08:26:57.803Z,1.71
2023-05-17T08:29:24.514Z,1.77
2023-05-17T08:31:52.520Z,1.75
2023-05-17T08:34:19.137Z,1.49
2023-05-17T08:36:45.908Z,1.55
2023-05-17T08:39:12.966Z,1.40
2023-05-17T08:41:40.133Z,1.50
2023-05-17T08:44:07.266Z,1.54
2023-05-17T08:46:36.957Z,1.41
2023-05-17T08:49:06.788Z,1.45
2023-05-17T08:51:33.772Z,1.55
2023-05-17T08:54:05.123Z,1.52
2023-05-17T08:56:35.573Z,1.39
2023-05-17T08:59:06.463Z,1.51
2023-05-17T09:01:33.546Z,1.55
2023-05-17T09:04:00.750Z,1.50
2023-05-17T09:06:27.661Z,1.23
2023-05-17T09:08:55.132Z,1.46
2023-05-17T09:11:30.675Z,1.47
2023-05-17T09:14:02.686Z,1.55
2023-05-17T09:16:33.927Z,1.46
2023-05-17T09:19:02.033Z,1.49
2023-05-17T09:21:31.548Z,1.35
2023-05-17T09:24:06.089Z,1.21
2023-05-17T09:26:44.837Z,1.46
2023-05-17T09:29:16.573Z,1.28
2023-05-17T09:31:44.411Z,1.18
2023-05-17T09:34:12.071Z,1.31
2023-05-17T09:36:43.497Z,1.37
2023-05-17T09:39:12.888Z,1.37
2023-05-17T09:41:47.962Z,2.45
2023-05-17T09:44:15.896Z,1.17
2023-05-17T09:46:47.508Z,1.27
2023-05-17T09:49:15.489Z,1.31
2023-05-17T09:51:44.199Z,1.34
2023-05-17T09:54:11.764Z,1.34
2023-05-17T09:56:39.516Z,1.28
2023-05-17T09:59:14.248Z,1.23
2023-05-17T10:01:42.904Z,1.21
2023-05-17T10:04:11.278Z,1.13
2023-05-17T10:09:16.038Z,1.18
2023-05-17T10:11:46.949Z,1.04
2023-05-17T10:14:31.775Z,1.17
2023-05-17T10:16:59.064Z,1.01
2023-05-17T10:19:26.406Z,1.05
2023-05-17T10:21:54.692Z,1.15
2023-05-17T10:24:23.441Z,1.20
2023-05-17T10:26:51.225Z,1.27
2023-05-17T10:29:20.965Z,1.29
2023-05-17T10:31:51.225Z,1.06
2023-05-17T10:34:19.931Z,1.24
2023-05-17T10:36:49.468Z,1.26
2023-05-17T10:39:16.781Z,1.33
2023-05-17T10:41:47.952Z,1.35
2023-05-17T10:44:17.503Z,1.14
2023-05-17T10:46:58.316Z,1.21
2023-05-17T10:49:32.258Z,1.24
2023-05-17T10:52:11.306Z,1.21
2023-05-17T10:54:42.130Z,1.37
2023-05-17T10:57:17.727Z,1.16
2023-05-17T10:59:59.096Z,1.38
2023-05-17T11:02:27.435Z,1.39
2023-05-17T11:04:56.247Z,1.18
2023-05-17T11:07:27.267Z,1.28
2023-05-17T11:10:00.026Z,1.37
2023-05-17T11:12:38.439Z,1.60
2023-05-17T11:15:12.675Z,1.49
2023-05-17T11:17:54.541Z,1.41
2023-05-17T11:20:28.087Z,1.64
2023-05-17T11:23:00.069Z,1.47
2023-05-17T11:25:36.006Z,1.48
2023-05-17T11:28:18.852Z,1.38
2023-05-17T11:30:51.640Z,1.47
2023-05-17T11:33:33.151Z,1.30
2023-05-17T11:36:06.895Z,1.42
2023-05-17T11:38:34.324Z,1.49
2023-05-17T11:41:26.654Z,1.35
2023-05-17T11:43:54.434Z,1.46
2023-05-17T11:46:23.842Z,1.62
2023-05-17T11:48:52.582Z,1.39
2023-05-17T11:51:21.981Z,1.57
2023-05-17T11:53:51.797Z,1.67
2023-05-17T11:56:24.084Z,1.53
2023-05-17T11:58:54.253Z,1.38
2023-05-17T12:01:21.465Z,1.56
2023-05-17T12:03:57.418Z,1.41
2023-05-17T12:06:25.020Z,1.43
2023-05-17T12:08:51.732Z,1.75
2023-05-17T12:11:19.258Z,6.16
2023-05-17T12:13:48.903Z,5.97
2023-05-17T12:16:21.043Z,3.76
2023-05-17T12:18:50.298Z,3.46
2023-05-17T12:21:19.283Z,25.72
2023-05-17T12:23:49.558Z,5.95
2023-05-17T12:26:19.157Z,4.45
2023-05-17T12:28:57.331Z,4.57
2023-05-17T12:31:32.438Z,2.00
2023-05-17T12:34:02.331Z,1.49
2023-05-17T12:36:31.475Z,1.56
2023-05-17T12:38:58.477Z,1.58
2023-05-17T12:41:26.649Z,15.67
2023-05-17T12:44:06.314Z,15.84
2023-05-17T12:46:40.397Z,2.42
2023-05-17T12:49:12.051Z,2.09
2023-05-17T12:51:44.949Z,1.70
2023-05-17T12:54:13.499Z,1.60
2023-05-17T12:56:44.010Z,1.65
2023-05-17T12:59:10.796Z,1.61
2023-05-17T13:01:39.624Z,1.45
2023-05-17T13:04:06.425Z,1.61
2023-05-17T13:07:00.675Z,1.68
2023-05-17T13:09:31.003Z,1.48
2023-05-17T13:12:05.204Z,1.58
2023-05-17T13:14:39.088Z,1.66
2023-05-17T13:17:09.137Z,1.55
2023-05-17T13:19:36.152Z,1.61
2023-05-17T13:22:04.394Z,1.55
2023-05-17T13:24:34.856Z,1.51
2023-05-17T13:27:02.733Z,1.49
2023-05-17T13:29:38.867Z,1.64
2023-05-17T13:32:08.723Z,1.67
2023-05-17T13:34:36.086Z,1.91
2023-05-17T13:37:03.152Z,1.64
2023-05-17T13:39:29.830Z,1.90
2023-05-17T13:41:57.201Z,1.67
2023-05-17T13:44:23.906Z,1.98
2023-05-17T13:46:51.126Z,1.68
2023-05-17T13:49:17.798Z,1.85
2023-05-17T13:51:45.065Z,1.78
2023-05-17T13:54:11.962Z,1.76
2023-05-17T13:56:38.777Z,1.83
2023-05-17T13:59:05.503Z,1.78
2023-05-17T14:01:32.166Z,1.65
2023-05-17T14:04:00.578Z,1.87
2023-05-17T14:06:27.614Z,1.83
2023-05-17T14:08:55.843Z,1.59
2023-05-17T14:11:22.837Z,1.85
2023-05-17T14:13:49.548Z,1.71
2023-05-17T14:16:16.222Z,1.94
2023-05-17T14:18:43.178Z,1.97
2023-05-17T14:21:10.095Z,1.87
2023-05-17T14:23:36.793Z,1.62
2023-05-17T14:26:07.119Z,1.62
2023-05-17T14:28:37.733Z,1.75
2023-05-17T14:31:08.507Z,1.66
2023-05-17T14:33:35.569Z,1.79
2023-05-17T14:36:04.064Z,1.84
2023-05-17T14:38:31.101Z,1.94
2023-05-17T14:40:59.011Z,1.96
2023-05-17T14:43:25.698Z,1.91
2023-05-17T14:45:52.353Z,2.15
2023-05-17T14:48:19.114Z,1.79
2023-05-17T14:50:45.906Z,1.70
2023-05-17T14:53:12.620Z,1.77
2023-05-17T14:55:39.276Z,1.75
2023-05-17T14:58:06.444Z,1.92
2023-05-17T15:00:33.358Z,1.83
2023-05-17T15:03:00.165Z,1.72
2023-05-17T15:05:27.852Z,1.61
2023-05-17T15:07:54.685Z,1.48
2023-05-17T15:10:21.561Z,1.99
2023-05-17T15:12:48.720Z,1.97
2023-05-17T15:15:15.608Z,1.75
2023-05-17T15:17:42.780Z,1.83
2023-05-17T15:20:10.741Z,1.69
2023-05-17T15:22:37.726Z,1.82
2023-05-17T15:25:06.101Z,1.98
2023-05-17T15:27:32.904Z,1.86
2023-05-17T15:29:59.622Z,2.03
2023-05-17T15:32:26.677Z,1.96
2023-05-17T15:34:53.391Z,1.98
2023-05-17T15:37:20.146Z,2.23
2023-05-17T15:39:47.654Z,2.03
2023-05-17T15:42:14.279Z,1.88
2023-05-17T15:44:41.102Z,2.10
2023-05-17T15:47:07.788Z,2.14
2023-05-17T15:49:34.888Z,2.04
2023-05-17T15:52:01.896Z,2.11
2023-05-17T15:54:28.803Z,2.12
2023-05-17T15:56:55.485Z,2.43
2023-05-17T15:59:22.129Z,2.23
2023-05-17T16:01:49.268Z,2.43
2023-05-17T16:04:16.112Z,2.06
2023-05-17T16:06:43.071Z,2.11
2023-05-17T16:09:09.833Z,2.08
2023-05-17T16:11:36.992Z,2.20
2023-05-17T16:14:03.607Z,2.30
2023-05-17T16:16:30.619Z,2.41
2023-05-17T16:18:57.910Z,2.28
2023-05-17T16:21:24.684Z,2.39
2023-05-17T16:23:51.772Z,2.34
2023-05-17T16:26:18.839Z,2.38
2023-05-17T16:28:45.748Z,2.53
2023-05-17T16:31:12.576Z,2.59
2023-05-17T16:33:41.302Z,2.74
2023-05-17T16:36:08.794Z,2.51
2023-05-17T16:38:35.454Z,2.23
2023-05-17T16:41:03.366Z,2.55
2023-05-17T16:43:30.901Z,2.43
2023-05-17T16:45:57.740Z,2.28
2023-05-17T16:48:24.527Z,2.54
2023-05-17T16:50:51.551Z,2.56
2023-05-17T16:53:18.548Z,2.41
2023-05-17T16:55:45.292Z,2.25
2023-05-17T16:58:11.957Z,2.74
2023-05-17T17:00:38.796Z,2.32
2023-05-17T17:03:08.989Z,2.26
2023-05-17T17:05:36.530Z,2.51
2023-05-17T17:08:03.242Z,2.52
2023-05-17T17:10:30.120Z,2.52
2023-05-17T17:12:57.216Z,2.52
2023-05-17T17:15:23.995Z,2.57
2023-05-17T17:17:50.792Z,2.54
2023-05-17T17:20:18.047Z,2.52
2023-05-17T17:22:44.709Z,2.33
2023-05-17T17:25:11.373Z,2.35
2023-05-17T17:27:38.127Z,2.81
2023-05-17T17:30:05.501Z,2.59
2023-05-17T17:32:32.466Z,2.38
2023-05-17T17:34:59.119Z,2.50
2023-05-17T17:37:26.027Z,2.41
2023-05-17T17:39:52.742Z,2.34
2023-05-17T17:42:19.544Z,2.70
2023-05-17T17:44:46.234Z,2.43
2023-05-17T17:47:13.072Z,2.29
2023-05-17T17:49:39.831Z,2.20
2023-05-17T17:52:06.731Z,2.38
2023-05-17T17:54:33.475Z,2.38
2023-05-17T17:57:00.065Z,2.31
2023-05-17T17:59:26.734Z,2.24
2023-05-17T18:01:53.499Z,2.32
2023-05-17T18:04:20.200Z,2.18
2023-05-17T18:06:47.141Z,2.19
2023-05-17T18:09:13.840Z,2.36
2023-05-17T18:11:40.660Z,2.05
2023-05-17T18:14:08.124Z,2.40
2023-05-17T18:16:34.960Z,2.00
2023-05-17T18:19:01.722Z,2.38
2023-05-17T18:21:29.458Z,2.40
2023-05-17T18:23:56.151Z,2.21
2023-05-17T18:26:23.352Z,2.13
2023-05-17T18:28:50.998Z,2.10
2023-05-17T18:31:18.638Z,2.08
2023-05-17T18:33:45.771Z,2.05
2023-05-17T18:36:12.727Z,2.17
2023-05-17T18:38:39.565Z,2.42
2023-05-17T18:41:06.783Z,2.37
2023-05-17T18:43:33.443Z,2.50
2023-05-17T18:46:00.099Z,1.98
2023-05-17T18:48:27.763Z,1.88
2023-05-17T18:50:54.709Z,2.01
2023-05-17T18:53:21.362Z,1.99
2023-05-17T18:55:47.945Z,2.07
2023-05-17T18:58:14.607Z,2.27
2023-05-17T19:00:41.335Z,2.12
2023-05-17T19:03:08.036Z,2.26
2023-05-17T19:05:34.737Z,2.11
2023-05-17T19:08:01.352Z,2.49
2023-05-17T19:10:28.434Z,2.34
2023-05-17T19:12:55.424Z,2.24
2023-05-17T19:15:22.706Z,2.26
2023-05-17T19:17:49.455Z,2.29
2023-05-17T19:20:16.290Z,2.33
2023-05-17T19:22:42.964Z,2.61
2023-05-17T19:25:09.814Z,2.36
2023-05-17T19:27:36.466Z,2.17
2023-05-17T19:30:03.608Z,2.13
2023-05-17T19:32:32.948Z,2.23
2023-05-17T19:35:01.122Z,2.25
2023-05-17T19:37:28.596Z,2.29
2023-05-17T19:39:55.917Z,2.14
2023-05-17T19:42:22.605Z,2.14
2023-05-17T19:44:49.209Z,2.04
2023-05-17T19:47:15.973Z,2.01
2023-05-17T19:49:43.297Z,2.19
2023-05-17T19:52:10.290Z,2.37
2023-05-17T19:54:36.995Z,2.31
2023-05-17T19:57:03.749Z,2.15
2023-05-17T19:59:30.499Z,2.18
2023-05-17T20:01:57.458Z,2.37
2023-05-17T20:04:24.213Z,2.43
2023-05-17T20:06:51.103Z,2.33
2023-05-17T20:09:17.907Z,2.33
2023-05-17T20:11:44.656Z,2.45
2023-05-17T20:14:12.280Z,2.75
2023-05-17T20:16:39.288Z,2.57
2023-05-17T20:19:06.205Z,2.71
2023-05-17T20:21:33.402Z,2.89
2023-05-17T20:24:04.025Z,2.78
2023-05-17T20:26:36.002Z,2.97
2023-05-17T20:29:07.363Z,3.16
2023-05-17T20:31:36.185Z,3.14
2023-05-17T20:34:03.904Z,3.00
2023-05-17T20:36:31.542Z,3.09
2023-05-17T20:38:58.290Z,2.97
2023-05-17T20:41:25.026Z,2.95
2023-05-17T20:43:52.483Z,3.24
2023-05-17T20:46:19.286Z,3.18
2023-05-17T20:48:48.040Z,3.07
2023-05-17T20:51:15.348Z,3.14
2023-05-17T20:53:42.082Z,3.25
2023-05-17T20:56:08.974Z,3.46
2023-05-17T20:58:35.855Z,3.39
2023-05-17T21:01:02.681Z,3.47
2023-05-17T21:03:33.894Z,3.47
2023-05-17T21:06:02.155Z,3.74
2023-05-17T21:08:28.966Z,3.62
2023-05-17T21:10:56.417Z,3.89
2023-05-17T21:13:25.568Z,3.77
2023-05-17T21:15:56.438Z,4.23
2023-05-17T21:18:26.274Z,4.50
2023-05-17T21:20:53.290Z,4.38
2023-05-17T21:23:20.205Z,4.13
2023-05-17T21:25:47.402Z,4.15
2023-05-17T21:28:14.067Z,4.11
2023-05-17T21:30:40.708Z,3.99
2023-05-17T21:33:07.429Z,3.56
2023-05-17T21:35:34.223Z,3.68
2023-05-17T21:38:00.904Z,3.67
2023-05-17T21:40:27.530Z,3.49
2023-05-17T21:42:54.191Z,3.43
2023-05-17T21:45:21.068Z,3.37
2023-05-17T21:47:47.719Z,3.34
2023-05-17T21:50:14.572Z,3.41
2023-05-17T21:52:41.254Z,3.26
2023-05-17T21:55:09.172Z,3.47
2023-05-17T21:57:36.555Z,3.35
2023-05-17T22:00:07.898Z,3.61
2023-05-17T22:02:35.897Z,3.88
2023-05-17T22:05:02.824Z,3.92
2023-05-17T22:07:29.602Z,3.92
2023-05-17T22:09:56.211Z,4.51
2023-05-17T22:12:25.719Z,4.46
2023-05-17T22:14:54.155Z,4.34
2023-05-17T22:17:29.610Z,4.06
2023-05-17T22:20:03.499Z,4.30
2023-05-17T22:22:34.388Z,4.43
2023-05-17T22:25:01.554Z,4.28
2023-05-17T22:27:28.242Z,4.20
2023-05-17T22:29:54.943Z,4.26
2023-05-17T22:32:21.664Z,4.30
2023-05-17T22:34:49.103Z,4.31
2023-05-17T22:37:17.505Z,4.30
2023-05-17T22:39:44.144Z,4.28
2023-05-17T22:42:10.888Z,4.24
2023-05-17T22:44:37.544Z,3.94
2023-05-17T22:47:04.464Z,3.52
2023-05-17T22:49:35.863Z,3.74
2023-05-17T22:52:07.805Z,3.21
2023-05-17T22:54:36.283Z,3.20
2023-05-17T22:57:04.453Z,3.16
2023-05-17T22:59:32.880Z,3.34
2023-05-17T23:02:01.561Z,3.38
2023-05-17T23:04:30.146Z,3.39
2023-05-17T23:07:04.107Z,3.50
2023-05-17T23:09:31.279Z,3.34
2023-05-17T23:12:00.379Z,3.37
2023-05-17T23:14:27.255Z,3.67
2023-05-17T23:16:54.016Z,3.71
2023-05-17T23:19:21.100Z,3.81
2023-05-17T23:21:49.026Z,3.70
2023-05-17T23:24:15.811Z,3.87
2023-05-17T23:26:42.452Z,3.87
2023-05-17T23:29:10.568Z,3.98
2023-05-17T23:31:37.808Z,3.64
2023-05-17T23:34:06.779Z,3.48
2023-05-17T23:36:33.527Z,3.65
2023-05-17T23:39:00.168Z,3.59
2023-05-17T23:41:27.123Z,3.61
2023-05-17T23:43:53.753Z,3.86
2023-05-17T23:46:22.360Z,3.91
2023-05-17T23:48:50.468Z,3.68
2023-05-17T23:51:19.318Z,3.92
2023-05-17T23:53:48.696Z,4.02
2023-05-17T23:56:19.517Z,3.89
2023-05-17T23:58:46.259Z,3.85
